메인 페이지
METAR-TAF:

METAR-TAF

공항 :

라바트, 모로코

위도: 34-03N, 경도: 006-46W, 고도: 84m

현재 날씨관측

예보는 44분 전, 12:30시(UTC)에 발표되었습니다.
북서9kt
온도 23°C
습도 69%
기압 1012 hPa
시정: 7000m

METAR: GMME 291230Z 31009KT 7000 NSC 23/17 Q1012 NOSIG

시각: 14:14 (13:14 UTC)

예보

예보는 2 시간 14분 전, 11:00시(UTC)에 발표되었습니다.
예보 대상 시간: 29일 12시부터 30일 18시까지 (UTC)
10kt
시정: 7000m
일시적
29일 23시부터 30일 07시까지 (UTC)
서남서5kt
시정: 3000m
고도 1000ft 상공 구름 많음
박무
전환 중
30일 12시부터 30일 14시까지 (UTC)
11kt

TAF: GMME 291100Z 2912/3018 35010KT 7000 NSC TEMPO 2923/3007 24005KT 3000 BR BKN010 BECMG 3012/3014 27011KT

4,000개 이상의 공항 관측 자료 및 예보 (METAR 및 TAF 보고).

지도상에서 검색 가능한 기상관측소가 노란 점과 빨간 점으로 표시되어 있습니다.

기상관측소 명을 보려면 표시 위로 마우스를 이동하세요.

날씨 관측과 예보를 보려면 클릭하세요.

지도 변경 : 확대하려면 엑스 표시가 있는 녹색 버튼, 축소하려면 빼기 표시가 있는 녹색 버튼, 다음 페이지의 지도를 보려면 녹색 화살표를 클릭하세요.


METAR-TAF: